Time;durP1;ratioP1;P1;durP2;ratioP2;P2;SDS_P1;SDS_P2;PMS_P1;PMS_P2;Temp;Humidity;BMP_temperature;BMP_pressure;BME280_temperature;BME280_humidity;BME280_pressure;Samples;Min_cycle;Max_cycle;Signal;HPM_P1;HPM_P2
2022/10/02 00:01:51;;;;;;;37.08;7.93;;;;;;;;;;4935528;29;20036;-62
2022/10/02 00:04:23;;;;;;;46.42;8.43;;;;;;;;;;4935069;29;20034;-61
2022/10/02 00:06:50;;;;;;;;;;;;;;;;;;4935691;29;20020;-62
2022/10/02 00:09:23;;;;;;;46.97;7.70;;;;;;;;;;4930831;29;20321;-61
2022/10/02 00:11:52;;;;;;;39.92;8.88;;;;;;;;;;4914520;29;20032;-61
2022/10/02 00:14:20;;;;;;;45.53;8.55;;;;;;;;;;4921918;29;20036;-62
2022/10/02 00:16:48;;;;;;;38.25;8.50;;;;;;;;;;4934129;29;20031;-63
2022/10/02 00:19:19;;;;;;;43.83;8.70;;;;;;;;;;4933829;29;20024;-61
2022/10/02 00:21:52;;;;;;;36.53;8.00;;;;;;;;;;4933748;29;20082;-61
2022/10/02 00:24:20;;;;;;;51.30;8.93;;;;;;;;;;4933986;29;20024;-62
2022/10/02 00:26:47;;;;;;;38.28;8.07;;;;;;;;;;4933096;29;20027;-62
2022/10/02 00:29:14;;;;;;;51.22;9.55;;;;;;;;;;4933072;29;20023;-62
2022/10/02 00:31:59;;;;;;;37.25;8.20;;;;;;;;;;4932751;29;20024;-62
2022/10/02 00:34:44;;;;;;;44.65;8.73;;;;;;;;;;4923681;29;20505;-62
2022/10/02 00:37:19;;;;;;;44.78;8.02;;;;;;;;;;4928271;29;20142;-62
2022/10/02 00:39:52;;;;;;;47.20;7.95;;;;;;;;;;4930558;29;20031;-62
2022/10/02 00:42:19;;;;;;;44.70;8.40;;;;;;;;;;4922199;29;20071;-62
2022/10/02 00:44:51;;;;;;;46.20;8.35;;;;;;;;;;4922571;29;20438;-62
2022/10/02 00:47:18;;;;;;;;;;;;;;;;;;4940018;29;20028;-62
2022/10/02 00:50:00;;;;;;;43.28;7.57;;;;;;;;;;4928620;29;19915;-62
2022/10/02 00:52:36;;;;;;;46.35;9.45;;;;;;;;;;4931728;29;20051;-62
2022/10/02 00:55:11;;;;;;;45.33;8.27;;;;;;;;;;4930439;29;20036;-62
2022/10/02 00:58:01;;;;;;;36.03;8.23;;;;;;;;;;4930928;29;20538;-61
2022/10/02 01:00:28;;;;;;;43.83;7.70;;;;;;;;;;4925136;29;20031;-62
2022/10/02 01:03:04;;;;;;;41.45;7.95;;;;;;;;;;4924965;29;20040;-61
2022/10/02 01:05:31;;;;;;;44.97;9.10;;;;;;;;;;4923957;29;20519;-61
2022/10/02 01:07:58;;;;;;;41.85;8.63;;;;;;;;;;4928202;29;20039;-61
2022/10/02 01:10:27;;;;;;;43.83;9.05;;;;;;;;;;4925040;29;20032;-61
2022/10/02 01:12:55;;;;;;;52.80;10.95;;;;;;;;;;4927992;29;20027;-63
2022/10/02 01:15:24;;;;;;;40.78;10.60;;;;;;;;;;4931074;29;20028;-62
2022/10/02 01:17:52;;;;;;;52.90;11.85;;;;;;;;;;4933237;29;20057;-62
2022/10/02 01:20:45;;;;;;;62.95;13.07;;;;;;;;;;4925074;29;20031;-63
2022/10/02 01:23:12;;;;;;;47.45;11.02;;;;;;;;;;4934804;29;20047;-61
2022/10/02 01:25:39;;;;;;;46.90;10.55;;;;;;;;;;4935096;29;20024;-61
2022/10/02 01:28:06;;;;;;;46.72;10.40;;;;;;;;;;4925283;29;20031;-61
2022/10/02 01:30:34;;;;;;;37.78;8.88;;;;;;;;;;4937423;29;20047;-61
2022/10/02 01:33:03;;;;;;;36.45;9.48;;;;;;;;;;4924085;29;20062;-61
2022/10/02 01:35:31;;;;;;;38.47;9.52;;;;;;;;;;4937752;29;20038;-61
2022/10/02 01:38:00;;;;;;;36.85;9.60;;;;;;;;;;4924249;29;20044;-61
2022/10/02 01:40:31;;;;;;;43.58;9.65;;;;;;;;;;4929626;29;20020;-61
2022/10/02 01:43:09;;;;;;;38.22;9.13;;;;;;;;;;4928214;29;20541;-61
2022/10/02 01:45:43;;;;;;;36.15;9.75;;;;;;;;;;4934141;29;20032;-61
2022/10/02 01:48:29;;;;;;;38.45;9.32;;;;;;;;;;4927947;29;20039;-61
2022/10/02 01:51:07;;;;;;;44.85;9.95;;;;;;;;;;4924369;29;20043;-62
2022/10/02 01:53:45;;;;;;;32.33;9.18;;;;;;;;;;4932947;29;20028;-63
2022/10/02 01:56:18;;;;;;;35.83;9.00;;;;;;;;;;4930057;29;20040;-63
2022/10/02 01:59:04;;;;;;;30.98;7.80;;;;;;;;;;4918965;29;20061;-63
2022/10/02 02:01:31;;;;;;;32.47;8.63;;;;;;;;;;4931909;29;20053;-63
2022/10/02 02:04:00;;;;;;;29.45;7.78;;;;;;;;;;4924232;29;20023;-63
2022/10/02 02:06:32;;;;;;;28.45;7.20;;;;;;;;;;4936075;29;20443;-63
2022/10/02 02:08:59;;;;;;;;;;;;;;;;;;4924036;29;20471;-63
2022/10/02 02:11:26;;;;;;;28.88;8.10;;;;;;;;;;4925395;29;20365;-63
2022/10/02 02:14:11;;;;;;;37.33;7.90;;;;;;;;;;4922946;29;20028;-63
2022/10/02 02:16:45;;;;;;;33.35;8.32;;;;;;;;;;4923754;29;20040;-63
2022/10/02 02:19:30;;;;;;;31.80;8.32;;;;;;;;;;4926872;29;20039;-61
2022/10/02 02:22:26;;;;;;;32.33;7.45;;;;;;;;;;4925093;29;20039;-62
2022/10/02 02:25:12;;;;;;;38.13;7.88;;;;;;;;;;4928039;29;20151;-62
2022/10/02 02:27:44;;;;;;;30.90;8.27;;;;;;;;;;4922586;29;20044;-62
2022/10/02 02:30:13;;;;;;;39.25;7.60;;;;;;;;;;4926733;29;20042;-62
2022/10/02 02:32:44;;;;;;;27.58;6.88;;;;;;;;;;4927292;29;20056;-62
2022/10/02 02:35:32;;;;;;;32.03;7.53;;;;;;;;;;4926098;29;20028;-64
2022/10/02 02:38:12;;;;;;;36.80;7.22;;;;;;;;;;4927377;29;20067;-63
2022/10/02 02:40:42;;;;;;;31.42;8.38;;;;;;;;;;4925489;29;20028;-65
2022/10/02 02:43:18;;;;;;;28.70;7.78;;;;;;;;;;4926805;29;20032;-63
2022/10/02 02:45:52;;;;;;;30.45;7.25;;;;;;;;;;4927364;29;20035;-63
2022/10/02 02:48:26;;;;;;;29.42;6.78;;;;;;;;;;4927166;29;20034;-63
2022/10/02 02:50:58;;;;;;;25.15;6.32;;;;;;;;;;4924025;29;20107;-62
2022/10/02 02:53:29;;;;;;;27.30;6.90;;;;;;;;;;4919829;29;20051;-62
2022/10/02 02:55:59;;;;;;;24.63;6.83;;;;;;;;;;4920797;29;20111;-62
2022/10/02 02:58:47;;;;;;;21.42;6.18;;;;;;;;;;4924135;29;20727;-62
2022/10/02 03:01:15;;;;;;;38.83;6.80;;;;;;;;;;4926840;29;20028;-61
2022/10/02 03:03:42;;;;;;;16.13;5.80;;;;;;;;;;4926260;29;20032;-61
2022/10/02 03:06:18;;;;;;;20.65;6.40;;;;;;;;;;4926210;29;20027;-62
2022/10/02 03:08:47;;;;;;;25.13;6.13;;;;;;;;;;4925951;29;20550;-61
2022/10/02 03:11:32;;;;;;;22.20;5.75;;;;;;;;;;4925422;29;20036;-61
2022/10/02 03:14:00;;;;;;;21.60;6.38;;;;;;;;;;4926427;29;20092;-61
2022/10/02 03:16:39;;;;;;;20.13;5.38;;;;;;;;;;4925508;29;20095;-61
2022/10/02 03:19:08;;;;;;;23.05;6.22;;;;;;;;;;4926788;29;20115;-61
2022/10/02 03:21:39;;;;;;;18.23;5.82;;;;;;;;;;4927021;29;20398;-61
2022/10/02 03:24:11;;;;;;;20.80;5.57;;;;;;;;;;4926815;29;20118;-61
2022/10/02 03:26:41;;;;;;;21.38;5.78;;;;;;;;;;4925260;29;20028;-61
2022/10/02 03:29:12;;;;;;;20.30;5.07;;;;;;;;;;4924975;29;20040;-61
2022/10/02 03:31:40;;;;;;;18.83;5.40;;;;;;;;;;4925912;29;20020;-61
2022/10/02 03:34:09;;;;;;;18.67;5.30;;;;;;;;;;4927031;29;20047;-62
2022/10/02 03:36:36;;;;;;;19.13;5.43;;;;;;;;;;4925126;29;20043;-61
2022/10/02 03:39:05;;;;;;;16.90;4.57;;;;;;;;;;4925200;29;20390;-61
2022/10/02 03:41:32;;;;;;;13.63;4.90;;;;;;;;;;4926618;29;20031;-61
2022/10/02 03:43:59;;;;;;;16.10;4.60;;;;;;;;;;4925500;29;20510;-61
2022/10/02 03:46:26;;;;;;;20.08;5.32;;;;;;;;;;4925213;29;20537;-61
2022/10/02 03:48:55;;;;;;;15.70;5.05;;;;;;;;;;4924533;29;20156;-61
2022/10/02 03:51:23;;;;;;;14.75;4.88;;;;;;;;;;4925216;29;20106;-61
2022/10/02 03:53:50;;;;;;;14.32;4.22;;;;;;;;;;4926494;29;20039;-61
2022/10/02 03:56:20;;;;;;;17.30;4.28;;;;;;;;;;4925046;29;20410;-61
2022/10/02 03:58:48;;;;;;;17.13;4.40;;;;;;;;;;4916895;29;20078;-61
2022/10/02 04:01:26;;;;;;;16.73;4.32;;;;;;;;;;4922323;29;20032;-61
2022/10/02 04:03:59;;;;;;;19.00;5.10;;;;;;;;;;4925489;29;20509;-61
2022/10/02 04:06:25;;;;;;;;;;;;;;;;;;4923860;29;20569;-61
2022/10/02 04:09:04;;;;;;;18.90;4.88;;;;;;;;;;4934923;29;19915;-61
2022/10/02 04:11:34;;;;;;;15.93;3.97;;;;;;;;;;4928574;29;20035;-61
2022/10/02 04:14:10;;;;;;;13.50;4.13;;;;;;;;;;4916216;29;20115;-61
2022/10/02 04:16:42;;;;;;;14.63;4.70;;;;;;;;;;4916183;29;20129;-61
2022/10/02 04:19:12;;;;;;;13.05;4.20;;;;;;;;;;4916258;29;20095;-61
2022/10/02 04:22:02;;;;;;;10.77;4.05;;;;;;;;;;4916317;29;20029;-61
2022/10/02 04:24:49;;;;;;;14.13;4.13;;;;;;;;;;4909146;29;20040;-61
2022/10/02 04:27:20;;;;;;;11.88;3.58;;;;;;;;;;4916398;29;20039;-61
2022/10/02 04:29:49;;;;;;;14.98;3.53;;;;;;;;;;4916440;29;20032;-61
2022/10/02 04:32:26;;;;;;;11.68;4.10;;;;;;;;;;4916154;29;20139;-61
2022/10/02 04:34:53;;;;;;;12.80;4.18;;;;;;;;;;4916385;29;20043;-61
2022/10/02 04:37:40;;;;;;;11.40;3.83;;;;;;;;;;4916212;29;20036;-61
2022/10/02 04:40:25;;;;;;;9.95;3.75;;;;;;;;;;4916363;29;20047;-61
2022/10/02 04:42:58;;;;;;;10.80;3.42;;;;;;;;;;4916230;29;20036;-61
2022/10/02 04:45:34;;;;;;;12.45;4.05;;;;;;;;;;4916224;29;20387;-61
2022/10/02 04:48:03;;;;;;;9.07;3.60;;;;;;;;;;4916148;29;20148;-61
2022/10/02 04:50:46;;;;;;;9.60;3.42;;;;;;;;;;4916244;29;20028;-61
2022/10/02 04:53:20;;;;;;;13.27;3.55;;;;;;;;;;4916199;29;20060;-61
2022/10/02 04:55:47;;;;;;;11.57;3.78;;;;;;;;;;4916100;29;20029;-61
2022/10/02 04:58:32;;;;;;;9.93;3.40;;;;;;;;;;4918443;29;20036;-61
2022/10/02 05:01:10;;;;;;;10.27;3.25;;;;;;;;;;4919805;29;20028;-61
2022/10/02 05:03:43;;;;;;;12.73;3.75;;;;;;;;;;4919769;29;20035;-61
2022/10/02 05:06:28;;;;;;;16.15;3.88;;;;;;;;;;4919759;29;20087;-61
2022/10/02 05:08:58;;;;;;;11.70;3.45;;;;;;;;;;4919615;29;20059;-61
2022/10/02 05:11:39;;;;;;;14.52;3.63;;;;;;;;;;4919603;29;20020;-61
2022/10/02 05:14:06;;;;;;;13.07;3.55;;;;;;;;;;4919537;29;20108;-61
2022/10/02 05:16:42;;;;;;;10.30;3.80;;;;;;;;;;4919221;29;20043;-61
2022/10/02 05:19:09;;;;;;;9.60;3.90;;;;;;;;;;4919367;29;20028;-61
2022/10/02 05:22:10;;;;;;;9.48;4.00;;;;;;;;;;4919411;29;20029;-61
2022/10/02 05:24:37;;;;;;;7.07;3.20;;;;;;;;;;4888783;29;20044;-61
2022/10/02 05:27:07;;;;;;;8.60;3.40;;;;;;;;;;4919224;29;20494;-61
2022/10/02 05:29:43;;;;;;;11.95;3.58;;;;;;;;;;4919229;29;20557;-61
2022/10/02 05:32:22;;;;;;;10.15;3.20;;;;;;;;;;4919045;29;20056;-61
2022/10/02 05:35:02;;;;;;;12.73;3.83;;;;;;;;;;4919172;29;20046;-61
2022/10/02 05:37:46;;;;;;;11.77;3.25;;;;;;;;;;4919023;29;20123;-61
2022/10/02 05:40:39;;;;;;;11.13;3.22;;;;;;;;;;4919050;29;20032;-61
2022/10/02 05:43:10;;;;;;;9.63;3.45;;;;;;;;;;4919023;29;20031;-61
2022/10/02 05:45:56;;;;;;;13.13;4.15;;;;;;;;;;4919026;29;20099;-61
2022/10/02 05:48:34;;;;;;;9.60;3.20;;;;;;;;;;4918822;29;20029;-61
2022/10/02 05:51:06;;;;;;;9.93;3.58;;;;;;;;;;4918878;29;20035;-61
2022/10/02 05:54:06;;;;;;;9.20;3.45;;;;;;;;;;4918736;29;20035;-61
2022/10/02 05:56:38;;;;;;;13.52;3.75;;;;;;;;;;4887274;29;20515;-61
2022/10/02 05:59:20;;;;;;;8.70;3.42;;;;;;;;;;4918799;29;20504;-61
2022/10/02 06:01:49;;;;;;;11.45;3.47;;;;;;;;;;4924285;29;20044;-61
2022/10/02 06:04:22;;;;;;;9.85;3.63;;;;;;;;;;4937640;29;20058;-61
2022/10/02 06:06:54;;;;;;;6.57;3.22;;;;;;;;;;4937570;29;20050;-61
2022/10/02 06:09:24;;;;;;;10.23;3.20;;;;;;;;;;4936484;29;20332;-61
2022/10/02 06:12:00;;;;;;;12.85;3.88;;;;;;;;;;4937518;29;20035;-61
2022/10/02 06:14:53;;;;;;;9.32;3.20;;;;;;;;;;4937530;29;20024;-61
2022/10/02 06:17:27;;;;;;;8.02;3.00;;;;;;;;;;4936222;29;20391;-61
2022/10/02 06:19:54;;;;;;;10.68;3.42;;;;;;;;;;4937370;29;20038;-61
2022/10/02 06:22:24;;;;;;;8.60;3.63;;;;;;;;;;4937039;29;20035;-61
2022/10/02 06:24:55;;;;;;;11.02;3.10;;;;;;;;;;4937253;29;20036;-61
2022/10/02 06:27:42;;;;;;;9.45;3.40;;;;;;;;;;4937133;29;20032;-61
2022/10/02 06:30:10;;;;;;;9.82;3.25;;;;;;;;;;4937103;29;20047;-61
2022/10/02 06:32:57;;;;;;;11.00;3.67;;;;;;;;;;4936923;29;20410;-61
2022/10/02 06:35:42;;;;;;;7.57;2.75;;;;;;;;;;4926540;29;20054;-61
2022/10/02 06:38:09;;;;;;;11.80;3.35;;;;;;;;;;4937013;29;20661;-61
2022/10/02 06:40:50;;;;;;;9.73;3.20;;;;;;;;;;4936965;29;20122;-61
2022/10/02 06:43:39;;;;;;;5.35;2.58;;;;;;;;;;4937174;29;20479;-61
2022/10/02 06:46:26;;;;;;;12.90;2.83;;;;;;;;;;4936861;29;20032;-61
2022/10/02 06:49:02;;;;;;;9.25;3.20;;;;;;;;;;4936838;29;20444;-61
2022/10/02 06:51:35;;;;;;;7.80;2.95;;;;;;;;;;4936840;29;20016;-61
2022/10/02 06:54:18;;;;;;;9.65;3.15;;;;;;;;;;4936665;29;20119;-61
2022/10/02 06:56:45;;;;;;;11.93;3.20;;;;;;;;;;4936483;29;20047;-61
2022/10/02 06:59:30;;;;;;;7.43;3.25;;;;;;;;;;4936647;29;20115;-61
2022/10/02 07:02:16;;;;;;;7.97;3.10;;;;;;;;;;4936649;29;20497;-61
2022/10/02 07:05:03;;;;;;;11.75;3.67;;;;;;;;;;4936541;29;20386;-61
2022/10/02 07:07:39;;;;;;;10.55;2.83;;;;;;;;;;4926052;29;20450;-61
2022/10/02 07:10:06;;;;;;;11.40;3.28;;;;;;;;;;4936448;29;20059;-61
2022/10/02 07:12:56;;;;;;;8.80;3.38;;;;;;;;;;4936359;29;20020;-61
2022/10/02 07:15:30;;;;;;;8.43;3.10;;;;;;;;;;4933495;29;20038;-61
2022/10/02 07:18:15;;;;;;;13.35;2.92;;;;;;;;;;4936103;29;20131;-61
2022/10/02 07:20:47;;;;;;;8.20;2.95;;;;;;;;;;4935980;29;20514;-62
2022/10/02 07:23:20;;;;;;;8.55;2.75;;;;;;;;;;4936251;29;20020;-61
2022/10/02 07:25:50;;;;;;;7.07;3.05;;;;;;;;;;4936170;29;20023;-61
2022/10/02 07:28:23;;;;;;;7.22;2.50;;;;;;;;;;4936137;29;20020;-61
2022/10/02 07:31:09;;;;;;;8.63;3.03;;;;;;;;;;4936193;29;20038;-61
2022/10/02 07:33:36;;;;;;;8.23;3.00;;;;;;;;;;4935851;29;20055;-61
2022/10/02 07:36:13;;;;;;;7.75;3.05;;;;;;;;;;4935927;29;20031;-61
2022/10/02 07:38:50;;;;;;;9.13;2.50;;;;;;;;;;4935947;29;20103;-61
2022/10/02 07:41:36;;;;;;;7.60;3.10;;;;;;;;;;4935898;29;20020;-61
2022/10/02 07:44:18;;;;;;;9.00;3.20;;;;;;;;;;4935947;29;20019;-61
2022/10/02 07:47:00;;;;;;;9.40;3.20;;;;;;;;;;4935785;29;20024;-61
2022/10/02 07:49:45;;;;;;;6.75;2.88;;;;;;;;;;4935688;29;20470;-61
2022/10/02 07:52:15;;;;;;;6.82;2.67;;;;;;;;;;4935813;29;20078;-61
2022/10/02 07:54:54;;;;;;;7.82;3.08;;;;;;;;;;4935762;29;20032;-61
2022/10/02 07:57:34;;;;;;;5.07;2.35;;;;;;;;;;4935631;29;20031;-61
2022/10/02 08:00:06;;;;;;;6.35;2.53;;;;;;;;;;4935732;29;20145;-61
2022/10/02 08:02:39;;;;;;;8.57;3.17;;;;;;;;;;4935699;29;20023;-61
2022/10/02 08:05:13;;;;;;;9.88;2.90;;;;;;;;;;4935585;29;20454;-61
2022/10/02 08:07:41;;;;;;;7.13;3.03;;;;;;;;;;4935528;29;20055;-61
2022/10/02 08:10:10;;;;;;;7.63;2.83;;;;;;;;;;4935518;29;20059;-61
2022/10/02 08:12:39;;;;;;;6.68;2.92;;;;;;;;;;4935552;29;20399;-61
2022/10/02 08:15:14;;;;;;;9.95;2.70;;;;;;;;;;4935579;29;20372;-61
2022/10/02 08:17:58;;;;;;;8.68;2.80;;;;;;;;;;4935307;29;20043;-61
2022/10/02 08:20:29;;;;;;;9.75;3.33;;;;;;;;;;4935529;29;20482;-61
2022/10/02 08:23:05;;;;;;;5.78;2.50;;;;;;;;;;4935446;29;20030;-61
2022/10/02 08:25:52;;;;;;;7.55;2.92;;;;;;;;;;4935432;29;20032;-61
2022/10/02 08:28:19;;;;;;;7.78;3.00;;;;;;;;;;4931354;29;20028;-61
2022/10/02 08:30:46;;;;;;;7.97;2.97;;;;;;;;;;4935436;29;20479;-61
2022/10/02 08:33:21;;;;;;;7.00;2.72;;;;;;;;;;4937848;29;20054;-61
2022/10/02 08:35:56;;;;;;;6.65;2.60;;;;;;;;;;4939250;29;20101;-61
2022/10/02 08:38:46;;;;;;;8.57;2.55;;;;;;;;;;4939132;29;20023;-61
2022/10/02 08:41:29;;;;;;;5.70;2.33;;;;;;;;;;4939105;29;20031;-61
2022/10/02 08:44:14;;;;;;;10.23;2.95;;;;;;;;;;4939047;29;20020;-61
2022/10/02 08:46:59;;;;;;;11.38;2.45;;;;;;;;;;4938711;29;20482;-61
2022/10/02 08:49:44;;;;;;;7.15;3.05;;;;;;;;;;4939028;29;20023;-61
2022/10/02 08:52:17;;;;;;;10.10;2.65;;;;;;;;;;4939185;29;20034;-61
2022/10/02 08:54:56;;;;;;;7.93;2.80;;;;;;;;;;4938877;29;20107;-61
2022/10/02 08:57:38;;;;;;;7.03;2.58;;;;;;;;;;4938620;29;20115;-61
2022/10/02 09:00:20;;;;;;;6.15;2.53;;;;;;;;;;4938794;29;20027;-61
2022/10/02 09:02:47;;;;;;;;;;;;;;;;;;4939167;29;20203;-61
2022/10/02 09:05:43;;;;;;;5.65;2.38;;;;;;;;;;4938754;29;19906;-61
2022/10/02 09:08:13;;;;;;;6.25;2.38;;;;;;;;;;4938513;29;20032;-61
2022/10/02 09:10:49;;;;;;;4.93;2.30;;;;;;;;;;4938738;29;20078;-61
2022/10/02 09:13:22;;;;;;;7.68;2.70;;;;;;;;;;4938554;29;20028;-61
2022/10/02 09:15:55;;;;;;;5.60;2.35;;;;;;;;;;4938561;29;20510;-61
2022/10/02 09:18:28;;;;;;;6.47;2.40;;;;;;;;;;4938499;29;20027;-61
2022/10/02 09:21:04;;;;;;;7.78;2.75;;;;;;;;;;4938539;29;20039;-61
2022/10/02 09:23:30;;;;;;;7.05;2.70;;;;;;;;;;4938404;29;20056;-60
2022/10/02 09:26:00;;;;;;;6.65;3.00;;;;;;;;;;4938319;29;20111;-61
2022/10/02 09:28:50;;;;;;;7.72;2.30;;;;;;;;;;4938230;29;20039;-61
2022/10/02 09:31:31;;;;;;;7.28;2.17;;;;;;;;;;4928585;29;20074;-61
2022/10/02 09:34:08;;;;;;;6.07;2.30;;;;;;;;;;4938155;29;20043;-61
2022/10/02 09:36:53;;;;;;;7.03;2.90;;;;;;;;;;4937945;29;20031;-61
2022/10/02 09:39:27;;;;;;;4.93;2.30;;;;;;;;;;4938080;29;20063;-61
2022/10/02 09:42:21;;;;;;;5.47;2.47;;;;;;;;;;4938045;29;20023;-61
2022/10/02 09:44:59;;;;;;;4.80;2.17;;;;;;;;;;4937843;29;20107;-61
2022/10/02 09:47:34;;;;;;;5.68;2.40;;;;;;;;;;4937942;29;20031;-61
2022/10/02 09:50:10;;;;;;;7.82;1.88;;;;;;;;;;4937747;29;20035;-61
2022/10/02 09:52:55;;;;;;;5.60;2.13;;;;;;;;;;4936670;29;20475;-61
2022/10/02 09:55:37;;;;;;;3.63;1.90;;;;;;;;;;4937926;29;20027;-61
2022/10/02 09:58:10;;;;;;;6.00;2.20;;;;;;;;;;4937615;29;20226;-61
2022/10/02 10:00:43;;;;;;;7.43;2.10;;;;;;;;;;4937749;29;20110;-61
2022/10/02 10:03:28;;;;;;;4.25;2.00;;;;;;;;;;4937688;29;20035;-61
2022/10/02 10:06:13;;;;;;;5.07;2.33;;;;;;;;;;4937842;29;20031;-61
2022/10/02 10:08:58;;;;;;;6.20;2.42;;;;;;;;;;4937632;29;20387;-61
2022/10/02 10:11:43;;;;;;;5.07;1.85;;;;;;;;;;4937499;29;20083;-61
2022/10/02 10:14:13;;;;;;;4.50;1.88;;;;;;;;;;4937574;29;20035;-61
2022/10/02 10:16:53;;;;;;;6.32;1.90;;;;;;;;;;4937310;29;20043;-61
2022/10/02 10:19:57;;;;;;;4.32;1.90;;;;;;;;;;4937404;29;20054;-61
2022/10/02 10:22:46;;;;;;;5.47;2.00;;;;;;;;;;4916201;29;20136;-61
2022/10/02 10:25:14;;;;;;;8.02;2.55;;;;;;;;;;4936542;29;20066;-61
2022/10/02 10:27:59;;;;;;;8.82;2.20;;;;;;;;;;4937125;29;20027;-61
2022/10/02 10:30:26;;;;;;;6.03;1.88;;;;;;;;;;4937248;29;20038;-61
2022/10/02 10:33:16;;;;;;;6.93;2.47;;;;;;;;;;4936823;29;20107;-61
2022/10/02 10:35:57;;;;;;;8.38;2.17;;;;;;;;;;4927557;29;20386;-61
2022/10/02 10:38:33;;;;;;;6.80;2.40;;;;;;;;;;4937042;29;20038;-61
2022/10/02 10:41:15;;;;;;;5.40;2.10;;;;;;;;;;4936973;29;20032;-61
2022/10/02 10:43:42;;;;;;;4.35;2.13;;;;;;;;;;4936931;29;20038;-61
2022/10/02 10:46:27;;;;;;;4.85;1.88;;;;;;;;;;4936896;29;20024;-61
2022/10/02 10:49:01;;;;;;;6.43;1.88;;;;;;;;;;4936907;29;20015;-61
2022/10/02 10:51:44;;;;;;;6.22;2.13;;;;;;;;;;4936806;29;20387;-61
2022/10/02 10:54:47;;;;;;;4.35;1.92;;;;;;;;;;4936642;29;20039;-61
2022/10/02 10:57:22;;;;;;;6.15;2.10;;;;;;;;;;4915438;29;20069;-61
2022/10/02 11:00:01;;;;;;;3.78;1.80;;;;;;;;;;4930132;29;20422;-61
2022/10/02 11:02:45;;;;;;;3.67;1.83;;;;;;;;;;4936641;29;20043;-61
2022/10/02 11:05:30;;;;;;;6.15;1.90;;;;;;;;;;4936597;29;20031;-61
2022/10/02 11:08:09;;;;;;;8.57;2.28;;;;;;;;;;4936402;29;20032;-61
2022/10/02 11:10:52;;;;;;;5.63;2.03;;;;;;;;;;4936421;29;20087;-61
2022/10/02 11:13:29;;;;;;;6.22;2.00;;;;;;;;;;4936258;29;20031;-61
2022/10/02 11:15:55;;;;;;;4.70;2.00;;;;;;;;;;4936142;29;20034;-61
2022/10/02 11:18:41;;;;;;;5.55;1.75;;;;;;;;;;4936390;29;20034;-61
2022/10/02 11:21:20;;;;;;;4.40;1.75;;;;;;;;;;4936251;29;20114;-61
2022/10/02 11:24:12;;;;;;;4.40;1.58;;;;;;;;;;4936462;29;20079;-61
2022/10/02 11:26:45;;;;;;;4.60;1.58;;;;;;;;;;4933657;29;20040;-60
2022/10/02 11:29:33;;;;;;;4.63;1.58;;;;;;;;;;4934934;29;20031;-61
2022/10/02 11:32:08;;;;;;;4.35;1.80;;;;;;;;;;4935854;29;20047;-61
2022/10/02 11:34:39;;;;;;;2.65;1.45;;;;;;;;;;4936067;29;20043;-61
2022/10/02 11:37:06;;;;;;;3.42;1.42;;;;;;;;;;4935885;29;20044;-61
2022/10/02 11:39:36;;;;;;;3.22;1.58;;;;;;;;;;4935976;29;20553;-61
2022/10/02 11:42:04;;;;;;;4.35;1.85;;;;;;;;;;4935932;29;20043;-61
2022/10/02 11:44:50;;;;;;;4.75;2.10;;;;;;;;;;4936243;29;20443;-61
2022/10/02 11:47:40;;;;;;;3.75;1.50;;;;;;;;;;4935801;29;20040;-60
2022/10/02 11:50:27;;;;;;;7.13;1.70;;;;;;;;;;4933144;29;20391;-61
2022/10/02 11:53:24;;;;;;;6.00;1.95;;;;;;;;;;4935801;29;20359;-61
2022/10/02 11:56:09;;;;;;;3.13;1.45;;;;;;;;;;4931306;29;20042;-61
2022/10/02 11:58:53;;;;;;;3.33;1.75;;;;;;;;;;4935688;29;20111;-60
2022/10/02 12:01:44;;;;;;;4.30;1.42;;;;;;;;;;4935690;29;20389;-61
2022/10/02 12:04:29;;;;;;;8.68;1.63;;;;;;;;;;4935643;28;20043;-60
2022/10/02 12:06:59;;;;;;;5.20;1.85;;;;;;;;;;4934685;29;20542;-60
2022/10/02 12:09:55;;;;;;;4.82;1.65;;;;;;;;;;4935500;29;20477;-60
2022/10/02 12:12:38;;;;;;;4.07;1.85;;;;;;;;;;4917074;29;20048;-61
2022/10/02 12:15:05;;;;;;;4.03;1.83;;;;;;;;;;4935425;29;20028;-60
2022/10/02 12:17:32;;;;;;;4.38;1.60;;;;;;;;;;4935276;29;20078;-60
2022/10/02 12:28:56;;;;;;;4.53;1.90;;;;;;;;;;4935241;29;20102;-61
2022/10/02 12:31:29;;;;;;;5.30;2.00;;;;;;;;;;4935261;29;20020;-61
2022/10/02 12:34:31;;;;;;;8.07;2.00;;;;;;;;;;4924887;29;20044;-61
2022/10/02 12:37:08;;;;;;;8.20;2.13;;;;;;;;;;4913822;29;20044;-61
2022/10/02 12:39:44;;;;;;;9.25;1.95;;;;;;;;;;4915845;29;20103;-61
2022/10/02 12:42:20;;;;;;;7.72;2.17;;;;;;;;;;4916214;29;20025;-61
2022/10/02 12:45:05;;;;;;;12.90;2.00;;;;;;;;;;4916113;29;20024;-61
2022/10/02 12:47:39;;;;;;;8.68;1.90;;;;;;;;;;4916123;29;20051;-61
2022/10/02 12:50:16;;;;;;;7.95;1.83;;;;;;;;;;4916125;29;20038;-61
2022/10/02 12:52:43;;;;;;;10.50;1.95;;;;;;;;;;4915384;29;20430;-61
2022/10/02 12:55:13;;;;;;;11.73;1.90;;;;;;;;;;4934889;29;20494;-61
2022/10/02 12:57:52;;;;;;;9.60;2.20;;;;;;;;;;4934691;29;20028;-61
2022/10/02 13:00:19;;;;;;;5.53;1.95;;;;;;;;;;4929844;29;20099;-61
2022/10/02 13:02:55;;;;;;;9.10;2.40;;;;;;;;;;4921751;29;20142;-61
2022/10/02 13:05:22;;;;;;;10.88;2.17;;;;;;;;;;4922967;29;20438;-61
2022/10/02 13:08:09;;;;;;;12.30;2.20;;;;;;;;;;4923104;29;20056;-61
2022/10/02 13:10:45;;;;;;;9.50;2.28;;;;;;;;;;4915153;29;20111;-61
2022/10/02 13:13:17;;;;;;;10.27;2.08;;;;;;;;;;4915118;29;20024;-61
2022/10/02 13:15:53;;;;;;;9.35;2.00;;;;;;;;;;4929465;29;20072;-61
2022/10/02 13:18:42;;;;;;;7.53;2.30;;;;;;;;;;4915790;29;20044;-61
2022/10/02 13:21:27;;;;;;;9.85;2.40;;;;;;;;;;4929113;29;20031;-63
2022/10/02 13:24:04;;;;;;;7.93;2.20;;;;;;;;;;4927643;29;20042;-61
2022/10/02 13:26:37;;;;;;;6.93;2.08;;;;;;;;;;4930894;29;20031;-61
2022/10/02 13:29:10;;;;;;;8.95;2.33;;;;;;;;;;4937281;29;20023;-61
2022/10/02 13:31:40;;;;;;;5.30;1.80;;;;;;;;;;4937266;29;20508;-61
2022/10/02 13:34:14;;;;;;;6.32;1.75;;;;;;;;;;4934315;29;20622;-61
2022/10/02 13:37:04;;;;;;;6.93;1.80;;;;;;;;;;4927714;29;20032;-61
2022/10/02 13:39:32;;;;;;;8.65;2.13;;;;;;;;;;4925816;29;20041;-61
2022/10/02 13:42:02;;;;;;;7.53;1.90;;;;;;;;;;4928234;29;20035;-61
2022/10/02 13:44:40;;;;;;;5.45;1.90;;;;;;;;;;4934325;29;20569;-61
2022/10/02 13:47:10;;;;;;;7.53;1.60;;;;;;;;;;4934497;29;20060;-60
2022/10/02 13:49:52;;;;;;;9.05;2.00;;;;;;;;;;4937894;29;20140;-60
2022/10/02 13:52:20;;;;;;;7.35;1.88;;;;;;;;;;4920426;29;20116;-60
2022/10/02 13:55:04;;;;;;;9.73;2.15;;;;;;;;;;4918678;29;20028;-60
2022/10/02 13:57:49;;;;;;;8.20;2.20;;;;;;;;;;4918472;29;20036;-61
2022/10/02 14:00:34;;;;;;;7.57;2.15;;;;;;;;;;4918738;29;20546;-60
2022/10/02 14:03:05;;;;;;;5.40;2.13;;;;;;;;;;4918547;29;20025;-60
2022/10/02 14:05:35;;;;;;;7.50;2.33;;;;;;;;;;4918479;29;20062;-60
2022/10/02 14:08:20;;;;;;;7.15;1.90;;;;;;;;;;4927289;29;20024;-60
2022/10/02 14:10:53;;;;;;;17.48;2.72;;;;;;;;;;4937435;29;20024;-63
2022/10/02 14:13:20;;;;;;;37.38;4.32;;;;;;;;;;4937465;29;20032;-63
2022/10/02 14:15:49;;;;;;;39.55;4.55;;;;;;;;;;4937245;29;20071;-63
2022/10/02 14:18:32;;;;;;;24.20;3.63;;;;;;;;;;4937242;29;20521;-63
2022/10/02 14:21:14;;;;;;;16.77;3.15;;;;;;;;;;4922534;29;20091;-63
2022/10/02 14:23:44;;;;;;;44.88;5.88;;;;;;;;;;4918160;29;20083;-63
2022/10/02 14:26:11;;;;;;;40.08;4.60;;;;;;;;;;4918101;29;20495;-63
2022/10/02 14:28:41;;;;;;;27.05;4.10;;;;;;;;;;4918098;29;20028;-64
2022/10/02 14:31:07;;;;;;;29.98;4.93;;;;;;;;;;4922984;29;20375;-63
2022/10/02 14:33:50;;;;;;;44.30;6.47;;;;;;;;;;4936041;29;20051;-62
2022/10/02 14:36:39;;;;;;;33.15;5.72;;;;;;;;;;4935897;29;20031;-62
2022/10/02 14:39:15;;;;;;;55.70;6.93;;;;;;;;;;4925633;29;20037;-62
2022/10/02 14:41:54;;;;;;;35.75;5.07;;;;;;;;;;4935669;29;20042;-62
2022/10/02 14:44:33;;;;;;;33.17;5.78;;;;;;;;;;4924515;29;20490;-62
2022/10/02 14:47:20;;;;;;;31.88;5.50;;;;;;;;;;4923686;29;20052;-62
2022/10/02 14:49:52;;;;;;;34.85;6.03;;;;;;;;;;4934967;29;20480;-62
2022/10/02 14:52:37;;;;;;;32.05;5.10;;;;;;;;;;4922694;29;20031;-61
2022/10/02 14:55:04;;;;;;;54.38;8.00;;;;;;;;;;4922706;29;20399;-62
2022/10/02 14:57:31;;;;;;;33.67;5.20;;;;;;;;;;4922462;29;20035;-61
2022/10/02 15:00:10;;;;;;;46.95;6.65;;;;;;;;;;4927387;29;20062;-62
2022/10/02 15:02:55;;;;;;;42.50;6.30;;;;;;;;;;4925191;29;20028;-62
2022/10/02 15:05:40;;;;;;;41.60;6.88;;;;;;;;;;4922288;29;20079;-58
2022/10/02 15:08:30;;;;;;;28.30;8.90;;;;;;;;;;4923257;29;20032;-58
2022/10/02 15:10:58;;;;;;;37.95;8.73;;;;;;;;;;4923405;29;20070;-58
2022/10/02 15:13:33;;;;;;;45.33;12.57;;;;;;;;;;4938746;29;20024;-58
2022/10/02 15:19:19;;;;;;;66.20;12.38;;;;;;;;;;4932616;29;20418;-59
2022/10/02 15:22:05;;;;;;;84.72;14.77;;;;;;;;;;4925271;29;20024;-60
2022/10/02 15:24:32;;;;;;;51.38;13.05;;;;;;;;;;4931283;29;20039;-60
2022/10/02 15:26:59;;;;;;;61.35;13.52;;;;;;;;;;4932498;29;20043;-60
2022/10/02 15:29:31;;;;;;;80.93;20.45;;;;;;;;;;4934644;29;20031;-59
2022/10/02 15:32:17;;;;;;;50.85;17.40;;;;;;;;;;4916093;29;20431;-61
2022/10/02 15:34:48;;;;;;;45.47;15.73;;;;;;;;;;4934062;29;20063;-56
2022/10/02 15:37:21;;;;;;;44.80;15.13;;;;;;;;;;4934369;29;20063;-55
2022/10/02 15:39:53;;;;;;;54.75;18.55;;;;;;;;;;4923998;29;20117;-59
2022/10/02 15:42:29;;;;;;;45.70;14.63;;;;;;;;;;4934601;29;20102;-60
2022/10/02 15:45:02;;;;;;;58.17;15.10;;;;;;;;;;4915899;29;20531;-60